Valleyview, Canada
Current Conditions -  °F | °C
As of 1:00 PM on Saturday 20 Dec 2014 (Local Time) from CYQU Reporting Station
Broken Clouds Broken Clouds  
Wind Chill:   Ceiling: 23000
Heat Index: 10°   Visibility: 25mi
Dew Point:   Wind: 5mph
Humidity: 85%   Direction: 330°NNW
Pressure: 29.42"   Gusts: NA
Location:  55.07°N, 117.28°W
Report Text: CYQU 202000Z 33004KT 25SM FEW080 BKN230 M12/M14 A2942 RMK AC2CI4 SLP015
Loading
Personal Weather Stations






























Interactive Weather Map New forecast layout! Learn more

10-Day Weather Forecast

Advertisements
Track Severe Weather on mobile